createdAt,value
2022-09-10T00:01:22.766Z,20.78
2022-09-10T00:03:50.236Z,20.82
2022-09-10T00:06:18.707Z,20.87
2022-09-10T00:08:46.445Z,20.91
2022-09-10T00:11:13.909Z,20.90
2022-09-10T00:13:42.204Z,20.89
2022-09-10T00:16:12.058Z,20.85
2022-09-10T00:18:39.825Z,20.84
2022-09-10T00:21:12.874Z,20.83
2022-09-10T00:23:40.945Z,20.81
2022-09-10T00:26:11.961Z,20.74
2022-09-10T00:28:39.093Z,20.71
2022-09-10T00:31:05.957Z,20.65
2022-09-10T00:33:32.809Z,20.65
2022-09-10T00:35:59.563Z,20.64
2022-09-10T00:38:26.922Z,20.62
2022-09-10T00:40:53.779Z,20.60
2022-09-10T00:43:22.471Z,20.59
2022-09-10T00:45:55.494Z,20.60
2022-09-10T00:48:29.222Z,20.55
2022-09-10T00:50:58.883Z,20.48
2022-09-10T00:53:28.430Z,20.45
2022-09-10T00:55:59.391Z,20.43
2022-09-10T00:58:28.058Z,20.42
2022-09-10T01:01:00.530Z,20.40
2022-09-10T01:03:29.137Z,20.40
2022-09-10T01:05:57.460Z,20.41
2022-09-10T01:08:24.779Z,20.40
2022-09-10T01:11:15.057Z,20.36
2022-09-10T01:13:53.791Z,20.38
2022-09-10T01:16:28.796Z,20.37
2022-09-10T01:19:17.203Z,20.31
2022-09-10T01:21:57.133Z,20.27
2022-09-10T01:24:56.358Z,20.25
2022-09-10T01:27:28.855Z,20.24
2022-09-10T01:30:05.630Z,20.21
2022-09-10T01:32:44.116Z,20.20
2022-09-10T01:35:37.299Z,20.18
2022-09-10T01:38:09.920Z,20.14
2022-09-10T01:40:37.698Z,20.09
2022-09-10T01:43:09.982Z,20.07
2022-09-10T01:45:51.640Z,20.05
2022-09-10T01:48:49.040Z,20.07
2022-09-10T01:51:49.730Z,20.09
2022-09-10T01:54:16.421Z,20.10
2022-09-10T01:57:15.757Z,20.09
2022-09-10T02:00:21.616Z,20.01
2022-09-10T02:03:00.630Z,20.00
2022-09-10T02:05:30.547Z,19.99
2022-09-10T02:08:02.377Z,19.93
2022-09-10T02:10:29.274Z,19.88
2022-09-10T02:12:56.026Z,19.88
2022-09-10T02:15:26.367Z,19.89
2022-09-10T02:17:53.260Z,19.91
2022-09-10T02:20:21.133Z,19.91
2022-09-10T02:22:57.893Z,19.94
2022-09-10T02:25:28.246Z,20.00
2022-09-10T02:27:55.042Z,20.03
2022-09-10T02:30:21.803Z,20.02
2022-09-10T02:32:48.495Z,20.03
2022-09-10T02:35:15.334Z,20.00
2022-09-10T02:37:42.403Z,19.98
2022-09-10T02:40:10.159Z,20.00
2022-09-10T02:42:37.835Z,20.04
2022-09-10T02:45:05.628Z,20.05
2022-09-10T02:47:32.338Z,20.08
2022-09-10T02:49:59.050Z,20.09
2022-09-10T02:52:25.937Z,20.09
2022-09-10T02:54:52.622Z,20.09
2022-09-10T02:57:19.378Z,20.11
2022-09-10T02:59:46.237Z,20.11
2022-09-10T03:02:13.029Z,20.13
2022-09-10T03:04:39.921Z,20.17
2022-09-10T03:07:06.836Z,20.22
2022-09-10T03:09:33.563Z,20.26
2022-09-10T03:12:00.249Z,20.23
2022-09-10T03:14:26.997Z,20.20
2022-09-10T03:16:53.671Z,20.12
2022-09-10T03:19:20.425Z,20.10
2022-09-10T03:21:47.239Z,20.10
2022-09-10T03:24:15.459Z,20.13
2022-09-10T03:26:42.544Z,20.10
2022-09-10T03:29:09.341Z,20.12
2022-09-10T03:31:36.627Z,20.15
2022-09-10T03:34:04.074Z,20.16
2022-09-10T03:36:31.046Z,20.12
2022-09-10T03:38:58.828Z,20.04
2022-09-10T03:41:26.811Z,19.99
2022-09-10T03:43:53.510Z,19.95
2022-09-10T03:46:20.406Z,19.93
2022-09-10T03:48:47.135Z,19.95
2022-09-10T03:51:13.913Z,19.97
2022-09-10T03:53:40.705Z,20.01
2022-09-10T03:56:07.838Z,20.08
2022-09-10T03:58:35.286Z,20.19
2022-09-10T04:01:02.174Z,20.31
2022-09-10T04:03:29.446Z,20.44
2022-09-10T04:05:56.383Z,20.57
2022-09-10T04:08:23.143Z,20.72
2022-09-10T04:10:49.933Z,20.87
2022-09-10T04:13:16.680Z,20.99
2022-09-10T04:15:43.939Z,21.13
2022-09-10T04:18:10.920Z,21.29
2022-09-10T04:20:38.058Z,21.47
2022-09-10T04:23:04.923Z,21.65
2022-09-10T04:25:32.135Z,21.85
2022-09-10T04:27:59.072Z,22.05
2022-09-10T04:30:25.815Z,22.29
2022-09-10T04:32:52.523Z,22.50
2022-09-10T04:35:19.454Z,22.72
2022-09-10T04:37:46.233Z,22.92
2022-09-10T04:40:13.074Z,23.11
2022-09-10T04:42:40.151Z,23.27
2022-09-10T04:45:07.593Z,23.39
2022-09-10T04:47:34.591Z,23.49
2022-09-10T04:50:01.569Z,23.50
2022-09-10T04:52:28.288Z,23.51
2022-09-10T04:54:55.107Z,23.48
2022-09-10T04:57:22.129Z,23.55
2022-09-10T04:59:48.837Z,23.66
2022-09-10T05:02:15.591Z,23.77
2022-09-10T05:04:42.448Z,23.89
2022-09-10T05:07:09.133Z,23.98
2022-09-10T05:09:35.885Z,24.14
2022-09-10T05:12:03.199Z,24.27
2022-09-10T05:14:30.279Z,24.39
2022-09-10T05:16:57.314Z,24.47
2022-09-10T05:19:24.115Z,24.48
2022-09-10T05:21:50.840Z,24.58
2022-09-10T05:24:17.621Z,24.76
2022-09-10T05:26:44.539Z,24.96
2022-09-10T05:29:11.376Z,25.17
2022-09-10T05:31:38.378Z,25.33
2022-09-10T05:34:05.159Z,25.47
2022-09-10T05:36:31.904Z,25.59
2022-09-10T05:38:59.194Z,25.69
2022-09-10T05:41:26.581Z,25.74
2022-09-10T05:43:53.284Z,25.79
2022-09-10T05:46:20.048Z,25.87
2022-09-10T05:48:47.166Z,25.95
2022-09-10T05:51:14.122Z,26.12
2022-09-10T05:53:40.870Z,26.27
2022-09-10T05:56:07.739Z,26.40
2022-09-10T05:58:34.507Z,26.50
2022-09-10T06:01:02.001Z,26.62
2022-09-10T06:03:28.751Z,26.70
2022-09-10T06:05:55.492Z,26.78
2022-09-10T06:08:22.845Z,26.88
2022-09-10T06:11:00.739Z,26.96
2022-09-10T06:13:27.680Z,27.04
2022-09-10T06:15:54.725Z,27.12
2022-09-10T06:18:21.499Z,27.14
2022-09-10T06:20:48.289Z,27.19
2022-09-10T06:23:16.302Z,27.25
2022-09-10T06:25:43.434Z,27.30
2022-09-10T06:28:11.199Z,27.37
2022-09-10T06:30:38.208Z,27.40
2022-09-10T06:33:05.308Z,27.46
2022-09-10T06:35:32.068Z,27.49
2022-09-10T06:37:58.747Z,27.55
2022-09-10T06:40:25.542Z,27.51
2022-09-10T06:42:52.417Z,27.49
2022-09-10T06:45:19.314Z,27.44
2022-09-10T06:48:36.700Z,27.43
2022-09-10T06:50:32.800Z,27.43
2022-09-10T06:52:59.605Z,27.43
2022-09-10T06:55:26.926Z,27.47
2022-09-10T06:57:53.658Z,27.50
2022-09-10T07:00:20.684Z,27.51
2022-09-10T07:02:47.450Z,27.54
2022-09-10T07:05:14.353Z,27.52
2022-09-10T07:07:41.239Z,27.54
2022-09-10T07:10:08.452Z,27.57
2022-09-10T07:12:35.238Z,27.62
2022-09-10T07:15:02.034Z,27.74
2022-09-10T07:17:31.998Z,27.71
2022-09-10T07:19:58.898Z,27.72
2022-09-10T07:22:25.855Z,27.78
2022-09-10T07:24:52.525Z,27.83
2022-09-10T07:27:19.273Z,27.80
2022-09-10T07:29:46.203Z,27.83
2022-09-10T07:32:13.694Z,27.93
2022-09-10T07:34:40.544Z,27.94
2022-09-10T07:37:07.429Z,27.88
2022-09-10T07:39:34.527Z,27.91
2022-09-10T07:42:01.420Z,27.99
2022-09-10T07:44:28.277Z,28.05
2022-09-10T07:46:55.053Z,28.07
2022-09-10T07:49:21.778Z,28.04
2022-09-10T07:51:48.589Z,28.06
2022-09-10T07:54:15.425Z,28.18
2022-09-10T07:56:42.166Z,28.24
2022-09-10T07:59:09.103Z,28.23
2022-09-10T08:01:35.907Z,28.29
2022-09-10T08:04:05.168Z,28.29
2022-09-10T08:06:32.085Z,28.41
2022-09-10T08:08:58.804Z,28.38
2022-09-10T08:11:25.835Z,28.26
2022-09-10T08:13:54.152Z,28.26
2022-09-10T08:16:23.293Z,28.28
2022-09-10T08:18:50.777Z,28.07
2022-09-10T08:21:18.938Z,27.90
2022-09-10T08:23:50.511Z,27.72
2022-09-10T08:26:17.718Z,27.59
2022-09-10T08:28:44.674Z,27.45
2022-09-10T08:31:12.572Z,27.36
2022-09-10T08:33:40.287Z,27.36
2022-09-10T08:36:08.982Z,27.39
2022-09-10T08:38:38.894Z,27.43
2022-09-10T08:41:35.700Z,27.41
2022-09-10T08:44:15.905Z,27.38
2022-09-10T08:47:08.244Z,27.25
2022-09-10T08:49:46.446Z,27.13
2022-09-10T08:52:31.625Z,27.21
2022-09-10T08:55:19.605Z,27.20
2022-09-10T08:57:51.679Z,27.26
2022-09-10T09:00:21.444Z,27.41
2022-09-10T09:02:59.983Z,27.45
2022-09-10T09:05:26.928Z,27.48
2022-09-10T09:07:54.730Z,27.42
2022-09-10T09:10:37.641Z,27.51
2022-09-10T09:13:26.041Z,27.44
2022-09-10T09:16:11.536Z,27.44
2022-09-10T09:18:57.013Z,27.30
2022-09-10T09:21:37.816Z,27.25
2022-09-10T09:24:14.766Z,27.12
2022-09-10T09:26:45.946Z,27.12
2022-09-10T09:29:15.831Z,27.18
2022-09-10T09:31:51.036Z,27.44
2022-09-10T09:34:28.157Z,27.41
2022-09-10T09:37:01.494Z,27.38
2022-09-10T09:39:36.206Z,27.36
2022-09-10T09:42:29.124Z,27.55
2022-09-10T09:45:33.614Z,27.62
2022-09-10T09:48:00.659Z,27.62
2022-09-10T09:50:31.766Z,27.55
2022-09-10T09:52:58.466Z,27.57
2022-09-10T09:55:31.179Z,27.47
2022-09-10T09:58:20.735Z,27.36
2022-09-10T10:01:05.834Z,27.37
2022-09-10T10:03:38.201Z,27.54
2022-09-10T10:06:11.022Z,27.80
2022-09-10T10:08:45.292Z,27.80
2022-09-10T10:11:20.089Z,27.72
2022-09-10T10:13:48.586Z,27.57
2022-09-10T10:16:34.052Z,27.54
2022-09-10T10:19:00.929Z,27.55
2022-09-10T10:21:33.191Z,27.63
2022-09-10T10:24:00.672Z,27.78
2022-09-10T10:26:34.687Z,27.82
2022-09-10T10:29:21.864Z,27.91
2022-09-10T10:31:50.795Z,27.95
2022-09-10T10:34:53.032Z,27.93
2022-09-10T10:37:44.651Z,27.87
2022-09-10T10:40:26.968Z,27.89
2022-09-10T10:43:21.054Z,27.93
2022-09-10T10:46:25.460Z,27.95
2022-09-10T10:49:21.413Z,28.15
2022-09-10T10:51:57.286Z,28.19
2022-09-10T10:54:34.757Z,28.16
2022-09-10T10:57:41.820Z,28.24
2022-09-10T11:00:12.815Z,28.26
2022-09-10T11:03:01.400Z,28.24
2022-09-10T11:05:38.079Z,28.25
2022-09-10T11:08:18.500Z,28.31
2022-09-10T11:10:55.891Z,28.29
2022-09-10T11:13:47.563Z,28.34
2022-09-10T11:16:40.606Z,28.31
2022-09-10T11:19:23.828Z,28.33
2022-09-10T11:22:20.985Z,28.40
2022-09-10T11:24:57.779Z,28.39
2022-09-10T11:27:35.586Z,28.33
2022-09-10T11:30:10.532Z,28.30
2022-09-10T11:33:02.343Z,28.29
2022-09-10T11:35:44.007Z,28.36
2022-09-10T11:38:24.603Z,28.46
2022-09-10T11:41:09.780Z,28.45
2022-09-10T11:44:14.375Z,28.59
2022-09-10T11:46:49.972Z,28.52
2022-09-10T11:49:29.508Z,28.54
2022-09-10T11:51:56.435Z,28.47
2022-09-10T11:54:29.466Z,28.57
2022-09-10T11:57:05.969Z,28.46
2022-09-10T11:59:47.958Z,28.38
2022-09-10T12:02:48.435Z,28.31
2022-09-10T12:05:37.040Z,28.28
2022-09-10T12:08:26.830Z,28.28
2022-09-10T12:11:20.696Z,28.19
2022-09-10T12:13:48.295Z,27.97
2022-09-10T12:16:33.397Z,27.88
2022-09-10T12:19:04.564Z,27.97
2022-09-10T12:21:57.322Z,27.93
2022-09-10T12:24:31.999Z,27.91
2022-09-10T12:27:04.236Z,27.94
2022-09-10T12:29:32.932Z,27.89
2022-09-10T12:32:22.678Z,27.92
2022-09-10T12:35:28.102Z,27.96
2022-09-10T12:38:33.545Z,28.12
2022-09-10T12:41:05.019Z,28.16
2022-09-10T12:43:40.983Z,28.18
2022-09-10T12:46:10.838Z,28.21
2022-09-10T12:49:00.654Z,28.35
2022-09-10T12:51:59.569Z,28.19
2022-09-10T12:54:38.479Z,27.96
2022-09-10T12:57:30.888Z,27.81
2022-09-10T13:00:09.392Z,27.94
2022-09-10T13:03:05.649Z,27.83
2022-09-10T13:05:38.083Z,27.98
2022-09-10T13:08:21.074Z,28.20
2022-09-10T13:10:56.834Z,28.33
2022-09-10T13:13:48.681Z,28.24
2022-09-10T13:16:20.625Z,28.21
2022-09-10T13:18:48.789Z,28.30
2022-09-10T13:21:24.443Z,28.11
2022-09-10T13:23:52.920Z,28.22
2022-09-10T13:26:28.697Z,28.22
2022-09-10T13:28:55.514Z,28.17
2022-09-10T13:31:53.560Z,28.15
2022-09-10T13:34:51.722Z,28.20
2022-09-10T13:37:24.347Z,28.16
2022-09-10T13:39:51.186Z,28.19
2022-09-10T13:42:43.833Z,28.05
2022-09-10T13:45:27.363Z,27.87
2022-09-10T13:48:09.972Z,27.86
2022-09-10T13:50:40.645Z,27.80
2022-09-10T13:53:08.846Z,27.73
2022-09-10T13:55:36.727Z,27.80
2022-09-10T13:58:16.844Z,28.03
2022-09-10T14:00:56.011Z,28.17
2022-09-10T14:03:32.386Z,28.11
2022-09-10T14:06:07.182Z,27.92
2022-09-10T14:09:01.914Z,27.85
2022-09-10T14:11:38.513Z,27.76
2022-09-10T14:14:27.359Z,27.75
2022-09-10T14:17:09.857Z,27.71
2022-09-10T14:19:44.074Z,27.76
2022-09-10T14:22:21.371Z,27.71
2022-09-10T14:25:26.846Z,27.68
2022-09-10T14:27:55.493Z,27.67
2022-09-10T14:30:29.320Z,27.61
2022-09-10T14:33:35.240Z,27.56
2022-09-10T14:36:30.860Z,27.51
2022-09-10T14:39:19.423Z,27.55
2022-09-10T14:41:46.913Z,27.52
2022-09-10T14:44:23.654Z,27.46
2022-09-10T14:46:50.319Z,27.44
2022-09-10T14:49:24.813Z,27.41
2022-09-10T14:51:51.650Z,27.59
2022-09-10T14:54:18.511Z,27.69
2022-09-10T14:56:47.344Z,27.62
2022-09-10T14:59:33.009Z,27.65
2022-09-10T15:02:01.846Z,27.57
2022-09-10T15:04:29.890Z,27.48
2022-09-10T15:06:58.674Z,27.42
2022-09-10T15:09:27.706Z,27.35
2022-09-10T15:12:14.043Z,27.28
2022-09-10T15:14:41.162Z,27.22
2022-09-10T15:17:13.500Z,27.15
2022-09-10T15:19:40.494Z,27.12
2022-09-10T15:22:07.633Z,27.07
2022-09-10T15:24:52.497Z,27.01
2022-09-10T15:27:21.711Z,26.96
2022-09-10T15:29:48.700Z,26.89
2022-09-10T15:32:15.389Z,26.85
2022-09-10T15:34:42.624Z,26.80
2022-09-10T15:37:09.586Z,26.79
2022-09-10T15:39:36.307Z,26.79
2022-09-10T15:42:03.344Z,26.71
2022-09-10T15:44:30.096Z,26.68
2022-09-10T15:46:56.855Z,26.63
2022-09-10T15:49:23.650Z,26.59
2022-09-10T15:51:50.381Z,26.57
2022-09-10T15:54:17.126Z,26.52
2022-09-10T15:56:44.014Z,26.50
2022-09-10T15:59:10.704Z,26.48
2022-09-10T16:01:38.395Z,26.44
2022-09-10T16:04:06.712Z,26.41
2022-09-10T16:06:36.151Z,26.37
2022-09-10T16:09:05.930Z,26.37
2022-09-10T16:11:35.264Z,26.34
2022-09-10T16:14:04.834Z,26.29
2022-09-10T16:16:33.558Z,26.27
2022-09-10T16:19:01.500Z,26.25
2022-09-10T16:21:33.950Z,26.22
2022-09-10T16:24:01.520Z,26.20
2022-09-10T16:26:33.811Z,26.17
2022-09-10T16:29:03.492Z,26.16
2022-09-10T16:31:33.191Z,26.14
2022-09-10T16:34:01.986Z,26.11
2022-09-10T16:36:29.538Z,26.10
2022-09-10T16:38:58.098Z,26.07
2022-09-10T16:41:25.915Z,26.08
2022-09-10T16:43:53.461Z,26.06
2022-09-10T16:46:20.598Z,26.06
2022-09-10T16:48:47.405Z,26.01
2022-09-10T16:51:18.391Z,25.97
2022-09-10T16:53:46.825Z,25.94
2022-09-10T16:56:16.554Z,25.93
2022-09-10T16:58:48.017Z,25.88
2022-09-10T17:01:16.092Z,25.85
2022-09-10T17:03:47.417Z,25.81
2022-09-10T17:06:25.860Z,25.80
2022-09-10T17:08:57.522Z,25.74
2022-09-10T17:11:25.968Z,25.75
2022-09-10T17:13:53.813Z,25.74
2022-09-10T17:16:30.148Z,25.69
2022-09-10T17:19:05.605Z,25.65
2022-09-10T17:21:33.388Z,25.61
2022-09-10T17:24:00.928Z,25.59
2022-09-10T17:26:28.640Z,25.53
2022-09-10T17:29:00.207Z,25.49
2022-09-10T17:31:28.130Z,25.49
2022-09-10T17:33:55.851Z,25.51
2022-09-10T17:36:24.007Z,25.52
2022-09-10T17:38:51.239Z,25.55
2022-09-10T17:41:18.044Z,25.55
2022-09-10T17:43:44.825Z,25.56
2022-09-10T17:46:14.804Z,25.56
2022-09-10T17:48:42.937Z,25.56
2022-09-10T17:51:13.560Z,25.58
2022-09-10T17:53:40.674Z,25.59
2022-09-10T17:56:10.001Z,25.58
2022-09-10T17:58:37.010Z,25.59
2022-09-10T18:01:07.035Z,25.56
2022-09-10T18:03:35.379Z,25.50
2022-09-10T18:06:10.459Z,25.43
2022-09-10T18:08:39.232Z,25.36
2022-09-10T18:11:15.700Z,25.31
2022-09-10T18:13:43.704Z,25.25
2022-09-10T18:16:13.343Z,25.24
2022-09-10T18:18:40.395Z,25.23
2022-09-10T18:21:19.363Z,25.19
2022-09-10T18:23:55.689Z,25.15
2022-09-10T18:26:25.162Z,25.08
2022-09-10T18:28:54.628Z,25.08
2022-09-10T18:31:22.470Z,25.07
2022-09-10T18:33:49.330Z,25.07
2022-09-10T18:36:18.887Z,25.11
2022-09-10T18:38:47.016Z,25.13
2022-09-10T18:41:32.088Z,25.17
2022-09-10T18:44:01.692Z,25.21
2022-09-10T18:46:28.553Z,25.23
2022-09-10T18:48:56.131Z,25.26
2022-09-10T18:51:24.710Z,25.26
2022-09-10T18:53:56.342Z,25.28
2022-09-10T18:56:25.869Z,25.30
2022-09-10T18:58:58.655Z,25.30
2022-09-10T19:01:27.607Z,25.31
2022-09-10T19:03:54.956Z,25.32
2022-09-10T19:06:24.836Z,25.33
2022-09-10T19:08:54.959Z,25.33
2022-09-10T19:11:23.407Z,25.34
2022-09-10T19:13:55.852Z,25.31
2022-09-10T19:16:26.220Z,25.16
2022-09-10T19:18:58.743Z,25.02
2022-09-10T19:21:27.195Z,24.86
2022-09-10T19:23:59.156Z,24.71
2022-09-10T19:26:27.802Z,24.59
2022-09-10T19:28:56.245Z,24.52
2022-09-10T19:31:23.657Z,24.44
2022-09-10T19:33:59.393Z,24.41
2022-09-10T19:36:27.284Z,24.36
2022-09-10T19:38:56.593Z,24.31
2022-09-10T19:41:25.146Z,24.22
2022-09-10T19:43:53.734Z,24.11
2022-09-10T19:46:22.820Z,23.99
2022-09-10T19:48:49.634Z,23.87
2022-09-10T19:51:18.741Z,23.77
2022-09-10T19:53:45.542Z,23.72
2022-09-10T19:56:19.596Z,23.65
2022-09-10T19:58:49.005Z,23.60
2022-09-10T20:01:19.252Z,23.56
2022-09-10T20:03:47.092Z,23.53
2022-09-10T20:06:16.736Z,23.49
2022-09-10T20:08:43.576Z,23.45
2022-09-10T20:11:34.236Z,23.34
2022-09-10T20:14:04.117Z,23.29
2022-09-10T20:16:30.862Z,23.26
2022-09-10T20:18:57.875Z,23.22
2022-09-10T20:21:27.401Z,23.22
2022-09-10T20:23:55.692Z,23.25
2022-09-10T20:26:25.308Z,23.26
2022-09-10T20:28:54.365Z,23.25
2022-09-10T20:31:22.360Z,23.22
2022-09-10T20:33:53.714Z,23.16
2022-09-10T20:36:20.566Z,23.12
2022-09-10T20:38:47.286Z,23.08
2022-09-10T20:41:14.289Z,23.07
2022-09-10T20:43:41.075Z,23.05
2022-09-10T20:46:16.094Z,23.02
2022-09-10T20:48:48.838Z,23.01
2022-09-10T20:51:16.452Z,23.00
2022-09-10T20:53:43.457Z,23.01
2022-09-10T20:56:12.979Z,23.00
2022-09-10T20:58:41.304Z,23.00
2022-09-10T21:01:12.380Z,22.99
2022-09-10T21:03:40.703Z,22.93
2022-09-10T21:06:08.477Z,22.90
2022-09-10T21:08:40.187Z,22.85
2022-09-10T21:11:09.577Z,22.86
2022-09-10T21:13:37.550Z,22.85
2022-09-10T21:16:17.127Z,22.83
2022-09-10T21:18:50.920Z,22.82
2022-09-10T21:21:23.803Z,22.80
2022-09-10T21:23:52.408Z,22.75
2022-09-10T21:26:23.916Z,22.75
2022-09-10T21:28:55.917Z,22.71
2022-09-10T21:31:23.395Z,22.68
2022-09-10T21:33:50.290Z,22.64
2022-09-10T21:36:20.930Z,22.62
2022-09-10T21:38:48.534Z,22.60
2022-09-10T21:41:17.606Z,22.59
2022-09-10T21:43:47.093Z,22.60
2022-09-10T21:46:14.872Z,22.59
2022-09-10T21:48:42.564Z,22.57
2022-09-10T21:51:14.691Z,22.56
2022-09-10T21:53:42.920Z,22.53
2022-09-10T21:56:12.682Z,22.51
2022-09-10T21:58:40.665Z,22.46
2022-09-10T22:01:15.455Z,22.42
2022-09-10T22:03:42.195Z,22.40
2022-09-10T22:06:23.164Z,22.38
2022-09-10T22:09:01.494Z,22.32
2022-09-10T22:11:40.615Z,22.28
2022-09-10T22:14:21.340Z,22.23
2022-09-10T22:16:48.585Z,22.22
2022-09-10T22:19:19.096Z,22.19
2022-09-10T22:21:46.663Z,22.20
2022-09-10T22:24:15.266Z,22.21
2022-09-10T22:26:43.614Z,22.19
2022-09-10T22:29:11.727Z,22.16
2022-09-10T22:31:38.967Z,22.13
2022-09-10T22:34:08.637Z,22.09
2022-09-10T22:36:38.283Z,22.07
2022-09-10T22:39:07.948Z,22.08
2022-09-10T22:41:36.427Z,22.07
2022-09-10T22:44:03.425Z,22.08
2022-09-10T22:46:31.220Z,22.06
2022-09-10T22:48:58.153Z,22.05
2022-09-10T22:51:31.365Z,22.01
2022-09-10T22:53:58.419Z,22.00
2022-09-10T22:56:26.434Z,21.98
2022-09-10T22:58:54.731Z,21.95
2022-09-10T23:01:24.281Z,21.94
2022-09-10T23:03:51.118Z,21.91
2022-09-10T23:06:20.766Z,21.91
2022-09-10T23:08:49.982Z,21.88
2022-09-10T23:11:25.423Z,21.85
2022-09-10T23:13:57.951Z,21.82
2022-09-10T23:16:27.874Z,21.79
2022-09-10T23:18:56.981Z,21.74
2022-09-10T23:21:25.032Z,21.64
2022-09-10T23:23:58.334Z,21.61
2022-09-10T23:26:25.838Z,21.56
2022-09-10T23:28:53.092Z,21.52
2022-09-10T23:31:23.612Z,21.51
2022-09-10T23:33:53.449Z,21.52
2022-09-10T23:36:21.157Z,21.53
2022-09-10T23:38:48.322Z,21.58
2022-09-10T23:41:15.236Z,21.60
2022-09-10T23:43:43.318Z,21.60
2022-09-10T23:46:11.455Z,21.59
2022-09-10T23:48:38.876Z,21.59
2022-09-10T23:51:06.824Z,21.55
2022-09-10T23:53:33.696Z,21.50
2022-09-10T23:56:00.667Z,21.47
2022-09-10T23:58:27.371Z,21.42
